createdAt,value
2018-02-22T00:01:14.310Z,-5.20
2018-02-22T00:03:43.584Z,-5.10
2018-02-22T00:06:12.276Z,-5.20
2018-02-22T00:08:42.985Z,-5.20
2018-02-22T00:11:11.406Z,-5.30
2018-02-22T00:13:39.778Z,-5.20
2018-02-22T00:16:08.126Z,-5.10
2018-02-22T00:18:36.548Z,-5.20
2018-02-22T00:21:04.932Z,-5.10
2018-02-22T00:23:34.124Z,-5.10
2018-02-22T00:26:04.266Z,-5.10
2018-02-22T00:28:33.834Z,-5.20
2018-02-22T00:31:02.251Z,-5.20
2018-02-22T00:33:30.678Z,-5.30
2018-02-22T00:35:59.846Z,-5.20
2018-02-22T00:38:28.240Z,-5.20
2018-02-22T00:40:56.549Z,-5.20
2018-02-22T00:43:25.093Z,-5.10
2018-02-22T00:45:54.236Z,-5.20
2018-02-22T00:48:23.312Z,-5.20
2018-02-22T00:50:53.051Z,-5.20
2018-02-22T00:53:21.370Z,-5.20
2018-02-22T00:55:50.693Z,-5.20
2018-02-22T00:58:19.167Z,-5.10
2018-02-22T01:00:48.312Z,-5.10
2018-02-22T01:03:18.023Z,-5.10
2018-02-22T01:05:46.526Z,-5.10
2018-02-22T01:08:17.255Z,-5.10
2018-02-22T01:10:46.264Z,-5.00
2018-02-22T01:13:14.728Z,-5.10
2018-02-22T01:15:44.124Z,-5.00
2018-02-22T01:18:13.496Z,-5.00
2018-02-22T01:20:43.771Z,-5.00
2018-02-22T01:23:12.408Z,-5.10
2018-02-22T01:25:45.055Z,-4.90
2018-02-22T01:28:17.061Z,-5.00
2018-02-22T01:30:46.850Z,-5.10
2018-02-22T01:33:15.596Z,-5.10
2018-02-22T01:35:44.426Z,-5.20
2018-02-22T01:38:14.564Z,-5.30
2018-02-22T01:40:43.539Z,-5.30
2018-02-22T01:43:13.249Z,-5.30
2018-02-22T01:45:42.166Z,-5.30
2018-02-22T01:48:13.290Z,-5.30
2018-02-22T01:50:46.904Z,-5.40
2018-02-22T01:53:16.068Z,-5.40
2018-02-22T01:55:45.186Z,-5.30
2018-02-22T01:58:14.398Z,-5.40
2018-02-22T02:00:42.914Z,-5.40
2018-02-22T02:03:11.335Z,-5.40
2018-02-22T02:05:40.030Z,-5.40
2018-02-22T02:08:09.246Z,-5.40
2018-02-22T02:10:37.653Z,-5.40
2018-02-22T02:13:06.000Z,-5.40
2018-02-22T02:15:35.147Z,-5.40
2018-02-22T02:18:03.942Z,-5.40
2018-02-22T02:20:32.755Z,-5.30
2018-02-22T02:23:01.118Z,-5.20
2018-02-22T02:25:29.462Z,-5.20
2018-02-22T02:28:03.746Z,-5.20
2018-02-22T02:30:33.204Z,-5.30
2018-02-22T02:33:01.730Z,-5.30
2018-02-22T02:35:30.894Z,-5.30
2018-02-22T02:37:59.269Z,-5.30
2018-02-22T02:40:27.612Z,-5.30
2018-02-22T02:42:56.692Z,-5.20
2018-02-22T02:45:25.058Z,-5.20
2018-02-22T02:47:53.361Z,-5.30
2018-02-22T02:50:21.777Z,-5.40
2018-02-22T02:52:52.081Z,-5.40
2018-02-22T02:55:20.791Z,-5.60
2018-02-22T02:57:51.505Z,-5.80
2018-02-22T03:00:19.856Z,-5.70
2018-02-22T03:02:48.660Z,-5.80
2018-02-22T03:05:17.888Z,-5.90
2018-02-22T03:07:48.539Z,-6.00
2018-02-22T03:10:17.136Z,-6.00
2018-02-22T03:12:45.680Z,-6.00
2018-02-22T03:15:14.537Z,-6.10
2018-02-22T03:17:43.989Z,-6.10
2018-02-22T03:20:15.240Z,-6.10
2018-02-22T03:22:43.735Z,-6.20
2018-02-22T03:25:12.154Z,-6.10
2018-02-22T03:27:40.505Z,-6.20
2018-02-22T03:30:08.888Z,-6.10
2018-02-22T03:32:38.093Z,-6.10
2018-02-22T03:35:07.203Z,-6.30
2018-02-22T03:37:36.284Z,-6.40
2018-02-22T03:40:07.071Z,-6.40
2018-02-22T03:42:36.174Z,-6.70
2018-02-22T03:45:06.283Z,-6.70
2018-02-22T03:47:35.031Z,-6.70
2018-02-22T03:50:03.374Z,-6.60
2018-02-22T03:52:32.211Z,-6.80
2018-02-22T03:55:00.655Z,-6.70
2018-02-22T03:57:29.153Z,-6.70
2018-02-22T03:59:57.476Z,-6.70
2018-02-22T04:02:27.091Z,-6.70
2018-02-22T04:04:56.199Z,-6.80
2018-02-22T04:07:25.313Z,-6.80
2018-02-22T04:09:54.492Z,-6.80
2018-02-22T04:12:22.883Z,-6.80
2018-02-22T04:14:51.266Z,-6.90
2018-02-22T04:17:20.398Z,-6.80
2018-02-22T04:19:48.781Z,-6.90
2018-02-22T04:22:18.071Z,-6.90
2018-02-22T04:24:47.695Z,-7.00
2018-02-22T04:27:16.667Z,-7.00
2018-02-22T04:29:45.560Z,-6.90
2018-02-22T04:32:14.573Z,-7.00
2018-02-22T04:34:43.131Z,-7.20
2018-02-22T04:37:11.566Z,-7.10
2018-02-22T04:39:39.930Z,-7.10
2018-02-22T04:42:08.282Z,-7.20
2018-02-22T04:44:36.632Z,-7.30
2018-02-22T04:47:05.817Z,-7.20
2018-02-22T04:49:34.219Z,-7.20
2018-02-22T04:52:02.584Z,-7.30
2018-02-22T04:54:31.036Z,-7.30
2018-02-22T04:56:59.381Z,-7.20
2018-02-22T04:59:29.258Z,-7.30
2018-02-22T05:01:58.746Z,-7.40
2018-02-22T05:04:27.849Z,-7.40
2018-02-22T05:06:56.973Z,-7.30
2018-02-22T05:09:26.081Z,-7.20
2018-02-22T05:11:55.202Z,-7.20
2018-02-22T05:14:23.701Z,-7.20
2018-02-22T05:16:52.054Z,-7.20
2018-02-22T05:19:20.407Z,-7.20
2018-02-22T05:21:48.767Z,-7.20
2018-02-22T05:24:17.126Z,-7.30
2018-02-22T05:26:46.401Z,-7.50
2018-02-22T05:29:14.853Z,-7.50
2018-02-22T05:31:43.253Z,-7.50
2018-02-22T05:34:12.480Z,-7.10
2018-02-22T05:36:42.617Z,-7.10
2018-02-22T05:39:11.064Z,-7.10
2018-02-22T05:41:40.204Z,-7.20
2018-02-22T05:44:09.315Z,-7.30
2018-02-22T05:46:37.669Z,-7.40
2018-02-22T05:49:06.024Z,-7.50
2018-02-22T05:51:34.580Z,-7.60
2018-02-22T05:54:02.946Z,-7.70
2018-02-22T05:56:31.324Z,-7.60
2018-02-22T05:58:59.670Z,-7.60
2018-02-22T06:01:28.111Z,-7.60
2018-02-22T06:03:56.517Z,-7.50
2018-02-22T06:06:24.878Z,-7.50
2018-02-22T06:08:54.107Z,-7.50
2018-02-22T06:11:22.497Z,-7.50
2018-02-22T06:13:50.928Z,-7.40
2018-02-22T06:16:20.116Z,-7.20
2018-02-22T06:18:48.524Z,-7.20
2018-02-22T06:21:17.653Z,-7.40
2018-02-22T06:23:46.782Z,-7.30
2018-02-22T06:26:15.955Z,-7.50
2018-02-22T06:28:45.161Z,-7.40
2018-02-22T06:31:14.371Z,-7.50
2018-02-22T06:33:42.868Z,-7.50
2018-02-22T06:36:11.263Z,-7.60
2018-02-22T06:38:39.653Z,-7.80
2018-02-22T06:41:08.091Z,-7.90
2018-02-22T06:43:36.468Z,-7.90
2018-02-22T06:46:04.897Z,-7.80
2018-02-22T06:48:33.283Z,-7.60
2018-02-22T06:51:01.657Z,-7.40
2018-02-22T06:53:30.161Z,-7.20
2018-02-22T06:55:59.828Z,-7.10
2018-02-22T06:58:28.962Z,-7.00
2018-02-22T07:00:57.308Z,-7.00
2018-02-22T07:03:25.662Z,-7.00
2018-02-22T07:05:54.193Z,-7.00
2018-02-22T07:08:23.336Z,-6.80
2018-02-22T07:10:52.455Z,-6.80
2018-02-22T07:13:21.565Z,-6.70
2018-02-22T07:15:50.693Z,-6.70
2018-02-22T07:18:19.138Z,-6.70
2018-02-22T07:20:47.556Z,-6.60
2018-02-22T07:23:16.927Z,-6.50
2018-02-22T07:25:44.381Z,-6.50
2018-02-22T07:28:12.770Z,-6.50
2018-02-22T07:30:41.190Z,-6.50
2018-02-22T07:33:09.531Z,-6.50
2018-02-22T07:35:37.874Z,-6.40
2018-02-22T07:38:06.315Z,-6.20
2018-02-22T07:40:34.675Z,-6.00
2018-02-22T07:43:03.117Z,-5.70
2018-02-22T07:45:31.569Z,-5.60
2018-02-22T07:48:00.815Z,-5.40
2018-02-22T07:50:29.172Z,-5.40
2018-02-22T07:52:58.296Z,-5.30
2018-02-22T07:55:27.461Z,-5.10
2018-02-22T07:57:55.825Z,-5.10
2018-02-22T08:00:24.263Z,-5.00
2018-02-22T08:02:52.614Z,-4.90
2018-02-22T08:05:21.022Z,-4.80
2018-02-22T08:07:49.647Z,-4.70
2018-02-22T08:10:18.029Z,-4.60
2018-02-22T08:12:46.470Z,-4.50
2018-02-22T08:15:14.923Z,-4.50
2018-02-22T08:17:43.456Z,-4.50
2018-02-22T08:20:11.904Z,-4.40
2018-02-22T08:22:41.146Z,-4.20
2018-02-22T08:25:10.381Z,-4.10
2018-02-22T08:27:38.735Z,-4.10
2018-02-22T08:30:07.841Z,-3.70
2018-02-22T08:32:36.274Z,-3.80
2018-02-22T08:35:04.626Z,-3.70
2018-02-22T08:37:33.140Z,-3.80
2018-02-22T08:40:02.282Z,-4.00
2018-02-22T08:42:30.644Z,-4.00
2018-02-22T08:44:59.785Z,-4.20
2018-02-22T08:47:28.148Z,-4.20
2018-02-22T08:49:56.574Z,-4.20
2018-02-22T08:52:24.921Z,-4.20
2018-02-22T08:54:54.047Z,-4.10
2018-02-22T08:57:23.157Z,-4.00
2018-02-22T08:59:51.661Z,-4.00
2018-02-22T09:02:20.057Z,-4.00
2018-02-22T09:04:48.446Z,-4.00
2018-02-22T09:07:16.930Z,-3.90
2018-02-22T09:09:46.105Z,-4.00
2018-02-22T09:12:14.556Z,-4.00
2018-02-22T09:14:43.075Z,-4.00
2018-02-22T09:17:12.333Z,-3.90
2018-02-22T09:19:40.712Z,-4.00
2018-02-22T09:22:09.851Z,-3.70
2018-02-22T09:24:38.251Z,-3.70
2018-02-22T09:27:06.702Z,-3.60
2018-02-22T09:29:35.051Z,-3.60
2018-02-22T09:32:03.451Z,-3.60
2018-02-22T09:34:31.860Z,-3.50
2018-02-22T09:37:00.216Z,-3.30
2018-02-22T09:39:28.651Z,-3.30
2018-02-22T09:41:57.007Z,-3.30
2018-02-22T09:44:25.375Z,-3.20
2018-02-22T09:46:53.734Z,-3.20
2018-02-22T09:49:22.093Z,-3.20
2018-02-22T09:51:50.511Z,-3.10
2018-02-22T09:54:18.893Z,-3.10
2018-02-22T09:56:47.249Z,-2.90
2018-02-22T09:59:16.475Z,-2.50
2018-02-22T10:01:44.955Z,-2.60
2018-02-22T10:04:13.511Z,-2.40
2018-02-22T10:06:42.756Z,-2.30
2018-02-22T10:09:11.132Z,-2.40
2018-02-22T10:11:39.512Z,-2.20
2018-02-22T10:14:08.992Z,-1.90
2018-02-22T10:16:37.682Z,-2.00
2018-02-22T10:19:06.004Z,-1.80
2018-02-22T10:21:34.344Z,-1.60
2018-02-22T10:24:02.772Z,-1.50
2018-02-22T10:26:31.174Z,-1.70
2018-02-22T10:28:59.687Z,-1.80
2018-02-22T10:31:28.816Z,-1.90
2018-02-22T10:33:57.930Z,-1.90
2018-02-22T10:36:26.295Z,-2.00
2018-02-22T10:38:54.666Z,-1.90
2018-02-22T10:41:23.420Z,-1.90
2018-02-22T10:43:51.756Z,-1.80
2018-02-22T10:46:20.879Z,-1.40
2018-02-22T10:48:49.218Z,-1.40
2018-02-22T10:51:17.596Z,-1.20
2018-02-22T10:53:46.344Z,-1.30
2018-02-22T10:56:14.767Z,-1.00
2018-02-22T10:58:43.252Z,-0.60
2018-02-22T11:01:18.081Z,-0.90
2018-02-22T11:03:46.527Z,-1.00
2018-02-22T11:06:14.916Z,-0.90
2018-02-22T11:08:43.377Z,-0.60
2018-02-22T11:11:12.645Z,0.10
2018-02-22T11:13:40.951Z,0.00
2018-02-22T11:16:10.156Z,0.40
2018-02-22T11:18:38.590Z,0.40
2018-02-22T11:21:07.650Z,-1.30
2018-02-22T11:23:35.982Z,-1.30
2018-02-22T11:26:04.295Z,-1.50
2018-02-22T11:28:33.409Z,-1.90
2018-02-22T11:31:01.719Z,-1.90
2018-02-22T11:33:30.018Z,-2.20
2018-02-22T11:35:58.337Z,-2.30
2018-02-22T11:38:26.631Z,-2.20
2018-02-22T11:40:54.931Z,-1.90
2018-02-22T11:43:23.229Z,-1.70
2018-02-22T11:45:52.303Z,-1.80
2018-02-22T11:48:20.601Z,-1.80
2018-02-22T11:50:48.902Z,-1.80
2018-02-22T11:53:17.257Z,-1.70
2018-02-22T11:55:45.847Z,-1.50
2018-02-22T11:58:14.246Z,-1.60
2018-02-22T12:00:43.330Z,-1.70
2018-02-22T12:03:11.677Z,-1.70
2018-02-22T12:05:39.987Z,-1.80
2018-02-22T12:08:09.056Z,-1.60
2018-02-22T12:10:37.356Z,-1.60
2018-02-22T12:13:05.663Z,-1.40
2018-02-22T12:15:34.027Z,-1.40
2018-02-22T12:18:02.331Z,-1.50
2018-02-22T12:20:30.681Z,-1.30
2018-02-22T12:22:58.984Z,-1.10
2018-02-22T12:25:27.272Z,-1.30
2018-02-22T12:27:55.680Z,-1.60
2018-02-22T12:30:24.103Z,-1.70
2018-02-22T12:32:52.410Z,-1.50
2018-02-22T12:35:21.467Z,-0.90
2018-02-22T12:37:49.766Z,-0.90
2018-02-22T12:40:18.139Z,-0.30
2018-02-22T12:42:46.499Z,-0.10
2018-02-22T12:45:15.559Z,0.70
2018-02-22T12:47:43.882Z,0.70
2018-02-22T12:50:13.017Z,1.00
2018-02-22T12:52:41.342Z,1.00
2018-02-22T12:55:09.672Z,1.30
2018-02-22T12:57:37.976Z,1.40
2018-02-22T13:00:07.175Z,0.40
2018-02-22T13:02:36.233Z,0.20
2018-02-22T13:05:04.551Z,0.20
2018-02-22T13:07:32.873Z,0.30
2018-02-22T13:10:01.997Z,-0.40
2018-02-22T13:12:30.321Z,-0.40
2018-02-22T13:14:58.608Z,-0.40
2018-02-22T13:17:27.029Z,-0.50
2018-02-22T13:19:55.327Z,-0.60
2018-02-22T13:22:23.625Z,-0.70
2018-02-22T13:24:51.971Z,-0.80
2018-02-22T13:27:20.315Z,-0.80
2018-02-22T13:29:48.650Z,-0.40
2018-02-22T13:32:16.963Z,-0.10
2018-02-22T13:34:45.321Z,0.10
2018-02-22T13:37:25.478Z,0.20
2018-02-22T13:39:53.778Z,0.00
2018-02-22T13:42:22.202Z,-0.20
2018-02-22T13:45:02.275Z,-0.80
2018-02-22T13:47:30.681Z,-1.00
2018-02-22T13:50:10.624Z,-1.20
2018-02-22T13:52:39.047Z,-1.30
2018-02-22T13:55:08.129Z,-1.30
2018-02-22T13:57:37.188Z,-1.30
2018-02-22T14:00:05.491Z,-1.50
2018-02-22T14:02:33.794Z,-1.60
2018-02-22T14:05:02.199Z,-1.70
2018-02-22T14:07:30.663Z,-1.70
2018-02-22T14:09:58.977Z,-1.70
2018-02-22T14:12:27.268Z,-1.50
2018-02-22T14:14:55.633Z,-1.10
2018-02-22T14:17:23.944Z,-0.70
2018-02-22T14:19:52.270Z,0.10
2018-02-22T14:22:20.571Z,0.50
2018-02-22T14:24:49.637Z,0.90
2018-02-22T14:27:18.027Z,0.90
2018-02-22T14:29:46.367Z,1.20
2018-02-22T14:32:14.752Z,1.50
2018-02-22T14:34:43.162Z,1.30
2018-02-22T14:37:11.487Z,1.40
2018-02-22T14:39:39.800Z,1.20
2018-02-22T14:42:08.097Z,1.50
2018-02-22T14:44:36.399Z,1.10
2018-02-22T14:47:04.833Z,0.70
2018-02-22T14:49:33.131Z,1.00
2018-02-22T14:52:01.469Z,0.70
2018-02-22T14:54:29.781Z,-0.10
2018-02-22T14:56:58.194Z,-0.50
2018-02-22T14:59:26.497Z,-0.50
2018-02-22T15:01:54.809Z,-0.50
2018-02-22T15:04:23.110Z,-0.50
2018-02-22T15:06:52.406Z,-0.70
2018-02-22T15:09:20.726Z,-0.70
2018-02-22T15:11:49.030Z,-0.60
2018-02-22T15:14:17.368Z,-0.70
2018-02-22T15:16:46.589Z,-0.80
2018-02-22T15:19:14.990Z,-0.80
2018-02-22T15:21:43.329Z,-0.50
2018-02-22T15:24:11.807Z,-0.40
2018-02-22T15:26:40.193Z,-0.40
2018-02-22T15:29:08.535Z,-0.40
2018-02-22T15:31:36.864Z,-0.40
2018-02-22T15:34:05.960Z,-0.40
2018-02-22T15:36:35.087Z,-0.50
2018-02-22T15:39:03.488Z,-0.60
2018-02-22T15:41:31.783Z,-0.60
2018-02-22T15:44:00.939Z,-0.80
2018-02-22T15:46:29.245Z,-0.80
2018-02-22T15:48:57.541Z,-0.90
2018-02-22T15:51:25.853Z,-0.90
2018-02-22T15:53:54.161Z,-1.10
2018-02-22T15:56:23.281Z,-1.40
2018-02-22T15:58:52.343Z,-1.60
2018-02-22T16:01:20.654Z,-1.70
2018-02-22T16:03:48.986Z,-1.80
2018-02-22T16:06:17.398Z,-1.80
2018-02-22T16:08:45.926Z,-2.00
2018-02-22T16:11:14.683Z,-2.10
2018-02-22T16:13:43.296Z,-2.10
2018-02-22T16:16:12.118Z,-2.20
2018-02-22T16:18:40.459Z,-2.20
2018-02-22T16:21:08.953Z,-2.30
2018-02-22T16:23:37.248Z,-2.40
2018-02-22T16:26:05.630Z,-2.50
2018-02-22T16:28:33.963Z,-2.60
2018-02-22T16:31:02.352Z,-2.70
2018-02-22T16:33:30.680Z,-2.80
2018-02-22T16:35:59.782Z,-3.00
2018-02-22T16:38:28.158Z,-3.00
2018-02-22T16:40:56.474Z,-3.10
2018-02-22T16:43:24.763Z,-3.10
2018-02-22T16:45:53.830Z,-3.30
2018-02-22T16:48:22.132Z,-3.30
2018-02-22T16:50:50.475Z,-3.40
2018-02-22T16:53:18.777Z,-3.30
2018-02-22T16:55:47.274Z,-3.40
2018-02-22T16:58:15.619Z,-3.40
2018-02-22T17:00:44.039Z,-3.50
2018-02-22T17:03:12.446Z,-3.50
2018-02-22T17:05:40.799Z,-3.60
2018-02-22T17:08:09.148Z,-3.60
2018-02-22T17:10:37.499Z,-3.60
2018-02-22T17:13:06.686Z,-3.70
2018-02-22T17:15:35.369Z,-3.80
2018-02-22T17:18:04.948Z,-3.90
2018-02-22T17:20:33.285Z,-3.90
2018-02-22T17:23:01.609Z,-3.90
2018-02-22T17:25:30.214Z,-4.00
2018-02-22T17:28:04.387Z,-4.10
2018-02-22T17:30:38.430Z,-4.10
2018-02-22T17:33:06.756Z,-4.10
2018-02-22T17:35:41.719Z,-4.00
2018-02-22T17:38:23.006Z,-4.00
2018-02-22T17:40:57.073Z,-4.00
2018-02-22T17:43:25.479Z,-4.10
2018-02-22T17:45:53.847Z,-4.10
2018-02-22T17:48:22.230Z,-4.10
2018-02-22T17:50:50.558Z,-4.00
2018-02-22T17:53:18.993Z,-3.90
2018-02-22T17:55:48.112Z,-4.00
2018-02-22T17:58:16.471Z,-4.00
2018-02-22T18:00:45.724Z,-4.00
2018-02-22T18:03:14.114Z,-4.00
2018-02-22T18:05:42.508Z,-3.90
2018-02-22T18:08:10.875Z,-3.90
2018-02-22T18:10:39.206Z,-3.80
2018-02-22T18:13:07.593Z,-3.80
2018-02-22T18:15:36.001Z,-3.80
2018-02-22T18:18:04.378Z,-3.80
2018-02-22T18:20:32.721Z,-3.80
2018-02-22T18:23:01.375Z,-3.70
2018-02-22T18:25:30.225Z,-3.80
2018-02-22T18:27:59.358Z,-4.00
2018-02-22T18:30:27.703Z,-4.00
2018-02-22T18:32:56.039Z,-4.00
2018-02-22T18:35:24.428Z,-4.00
2018-02-22T18:37:58.461Z,-4.00
2018-02-22T18:40:32.608Z,-4.00
2018-02-22T18:43:01.111Z,-4.10
2018-02-22T18:45:29.471Z,-4.10
2018-02-22T18:47:57.795Z,-4.10
2018-02-22T18:50:26.114Z,-4.10
2018-02-22T18:52:54.450Z,-4.10
2018-02-22T18:55:22.860Z,-4.30
2018-02-22T18:57:51.190Z,-4.30
2018-02-22T19:00:20.371Z,-4.40
2018-02-22T19:02:48.709Z,-4.40
2018-02-22T19:05:17.075Z,-4.50
2018-02-22T19:07:45.509Z,-4.50
2018-02-22T19:10:14.645Z,-4.70
2018-02-22T19:12:43.088Z,-4.70
2018-02-22T19:15:12.291Z,-4.80
2018-02-22T19:17:41.478Z,-4.80
2018-02-22T19:20:09.879Z,-4.80
2018-02-22T19:22:38.233Z,-4.80
2018-02-22T19:25:06.542Z,-5.00
2018-02-22T19:27:35.690Z,-4.80
2018-02-22T19:30:04.802Z,-4.90
2018-02-22T19:32:33.981Z,-5.00
2018-02-22T19:35:02.348Z,-4.90
2018-02-22T19:37:30.686Z,-4.90
2018-02-22T19:39:59.789Z,-4.80
2018-02-22T19:42:28.131Z,-4.80
2018-02-22T19:44:56.817Z,-4.70
2018-02-22T19:47:25.167Z,-4.70
2018-02-22T19:49:53.506Z,-4.60
2018-02-22T19:52:21.927Z,-4.60
2018-02-22T19:54:50.262Z,-4.60
2018-02-22T19:57:20.344Z,-4.60
2018-02-22T19:59:48.829Z,-4.70
2018-02-22T20:02:17.275Z,-4.70
2018-02-22T20:04:46.477Z,-4.80
2018-02-22T20:07:14.935Z,-4.80
2018-02-22T20:09:43.481Z,-4.90
2018-02-22T20:12:12.863Z,-5.00
2018-02-22T20:14:42.697Z,-5.00
2018-02-22T20:17:11.021Z,-5.00
2018-02-22T20:19:39.384Z,-5.00
2018-02-22T20:22:07.747Z,-5.00
2018-02-22T20:24:36.095Z,-5.10
2018-02-22T20:27:04.499Z,-5.10
2018-02-22T20:29:32.851Z,-5.00
2018-02-22T20:32:01.281Z,-4.80
2018-02-22T20:34:30.543Z,-4.60
2018-02-22T20:36:58.871Z,-4.60
2018-02-22T20:39:27.252Z,-4.60
2018-02-22T20:41:55.818Z,-4.50
2018-02-22T20:44:24.162Z,-4.50
2018-02-22T20:46:52.498Z,-4.40
2018-02-22T20:49:20.917Z,-4.50
2018-02-22T20:51:53.021Z,-4.40
2018-02-22T20:54:21.474Z,-4.30
2018-02-22T20:56:49.772Z,-4.40
2018-02-22T20:59:18.080Z,-4.30
2018-02-22T21:01:47.149Z,-4.10
2018-02-22T21:04:18.469Z,-4.10
2018-02-22T21:06:46.852Z,-4.10
2018-02-22T21:09:15.160Z,-4.00
2018-02-22T21:11:43.613Z,-4.00
2018-02-22T21:14:12.020Z,-4.00
2018-02-22T21:16:40.363Z,-4.00
2018-02-22T21:19:09.003Z,-4.10
2018-02-22T21:21:38.066Z,-4.20
2018-02-22T21:24:06.368Z,-4.20
2018-02-22T21:26:34.670Z,-4.30
2018-02-22T21:29:03.049Z,-4.40
2018-02-22T21:31:31.422Z,-4.60
2018-02-22T21:33:59.725Z,-4.70
2018-02-22T21:36:28.321Z,-4.70
2018-02-22T21:38:56.724Z,-4.80
2018-02-22T21:41:25.052Z,-4.80
2018-02-22T21:43:55.058Z,-4.70
2018-02-22T21:46:23.390Z,-4.70
2018-02-22T21:48:51.713Z,-4.60
2018-02-22T21:51:20.103Z,-4.50
2018-02-22T21:53:48.513Z,-4.40
2018-02-22T21:56:17.112Z,-4.30
2018-02-22T21:58:45.504Z,-4.20
2018-02-22T22:01:13.931Z,-4.20
2018-02-22T22:03:43.560Z,-4.00
2018-02-22T22:06:12.027Z,-4.00
2018-02-22T22:08:40.402Z,-4.10
2018-02-22T22:11:08.735Z,-4.10
2018-02-22T22:13:37.131Z,-4.00
2018-02-22T22:16:05.526Z,-4.00
2018-02-22T22:18:33.842Z,-3.90
2018-02-22T22:21:02.229Z,-4.00
2018-02-22T22:23:30.597Z,-3.90
2018-02-22T22:25:58.938Z,-3.90
2018-02-22T22:28:27.452Z,-3.90
2018-02-22T22:30:55.775Z,-3.90
2018-02-22T22:33:24.108Z,-3.80
2018-02-22T22:35:52.439Z,-3.90
2018-02-22T22:38:21.544Z,-3.90
2018-02-22T22:40:50.246Z,-3.90
2018-02-22T22:43:19.383Z,-3.90
2018-02-22T22:45:47.704Z,-3.90
2018-02-22T22:48:16.065Z,-3.90
2018-02-22T22:50:44.446Z,-3.80
2018-02-22T22:53:13.221Z,-3.90
2018-02-22T22:55:41.576Z,-3.90
2018-02-22T22:58:09.920Z,-3.80
2018-02-22T23:00:38.274Z,-3.80
2018-02-22T23:03:06.602Z,-3.90
2018-02-22T23:05:35.758Z,-3.90
2018-02-22T23:08:04.086Z,-3.90
2018-02-22T23:10:32.456Z,-3.90
2018-02-22T23:13:01.582Z,-4.00
2018-02-22T23:15:29.926Z,-4.00
2018-02-22T23:17:58.393Z,-4.00
2018-02-22T23:20:27.626Z,-4.00
2018-02-22T23:22:56.036Z,-4.00
2018-02-22T23:25:24.439Z,-4.00
2018-02-22T23:27:52.763Z,-4.10
2018-02-22T23:30:22.223Z,-4.10
2018-02-22T23:32:50.681Z,-4.20
2018-02-22T23:35:19.737Z,-4.20
2018-02-22T23:37:48.043Z,-4.20
2018-02-22T23:43:16.930Z,-4.20
2018-02-22T23:45:46.141Z,-4.20
2018-02-22T23:48:15.242Z,-4.20
2018-02-22T23:50:43.716Z,-4.30
2018-02-22T23:53:13.025Z,-4.10
2018-02-22T23:55:42.957Z,-4.10
2018-02-22T23:58:12.114Z,-4.20
